WetterOnline ( https://www.wetteronline.de )

Wetter aktuell Großer Arber

Aktuelles Wetter: Großer Arber (1446m)

6-stündlich | Neueste Meldungen
Ortszeit Temperatur Wetter
Fr, 19.07. 2:00 14.0° C leicht bewölkt
Do, 18.07. 20:00 16.4° C wolkig
Do, 18.07. 14:00 17.5° C wolkig
Do, 18.07. 8:00 12.0° C bedeckt
Do, 18.07. 2:00 11.8° C wolkig
Mi, 17.07. 20:00 12.9° C bedeckt
Mi, 17.07. 14:00 12.7° C leichter Regen
Mi, 17.07. 8:00 12.4° C bewölkt
Ortszeit Temperatur Wetter
Fr, 19.07. 2:00 14.0° C leicht bewölkt
Fr, 19.07. 1:50 14.0° C leicht bewölkt
Fr, 19.07. 1:40 14.1° C wolkenlos
Fr, 19.07. 1:30 14.1° C leicht bewölkt
Fr, 19.07. 1:20 14.1° C leicht bewölkt
Fr, 19.07. 1:10 14.4° C wolkig
Fr, 19.07. 1:00 14.4° C leicht bewölkt
Fr, 19.07. 0:30 14.7° C wolkig
Fr, 19.07. 0:00 14.5° C leicht bewölkt
Do, 18.07. 23:30 14.8° C leicht bewölkt
Do, 18.07. 23:00 15.0° C leicht bewölkt
Ortszeit Relative Feuchte Sichtweite
Fr, 19.07. 2:00 83% 60 km
Do, 18.07. 20:00 76% 50 km
Do, 18.07. 14:00 72% 60 km
Do, 18.07. 8:00 86% 45 km
Do, 18.07. 2:00 84% 60 km
Mi, 17.07. 20:00 84% 60 km
Mi, 17.07. 14:00 88% 30 km
Mi, 17.07. 8:00 77% 50 km
Ortszeit Relative Feuchte Sichtweite
Fr, 19.07. 2:00 83% 60 km
Fr, 19.07. 1:50 83% -
Fr, 19.07. 1:40 83% -
Fr, 19.07. 1:30 83% 55 km
Fr, 19.07. 1:20 83% -
Fr, 19.07. 1:10 82% -
Fr, 19.07. 1:00 82% 55 km
Fr, 19.07. 0:30 81% 55 km
Fr, 19.07. 0:00 82% 55 km
Do, 18.07. 23:30 81% 65 km
Do, 18.07. 23:00 80% 55 km
Ortszeit Niederschlagsmenge Niederschlagsart
Fr, 19.07. 2:00 0.0 l/m2 in 6 Std. -
Do, 18.07. 20:00 0.0 l/m2 in 12 Std. -
Do, 18.07. 14:00 0.0 l/m2 in 6 Std. -
Do, 18.07. 8:00 0.0 l/m2 in 12 Std. -
Do, 18.07. 2:00 0.0 l/m2 in 6 Std. -
Mi, 17.07. 20:00 0.4 l/m2 in 12 Std. Niederschlag
Mi, 17.07. 14:00 0.4 l/m2 in 6 Std. Niederschlag
Mi, 17.07. 8:00 0.0 l/m2 in 12 Std. -
Ortszeit Niederschlagsmenge Niederschlagsart
Fr, 19.07. 2:00 0.0 l/m2 in 1 Std. -
Fr, 19.07. 1:50 keine Meldung -
Fr, 19.07. 1:40 keine Meldung -
Fr, 19.07. 1:30 0.0 l/m2 in 30 Min -
Fr, 19.07. 1:20 keine Meldung -
Fr, 19.07. 1:10 keine Meldung -
Fr, 19.07. 1:00 0.0 l/m2 in 1 Std. -
Fr, 19.07. 0:30 0.0 l/m2 in 30 Min -
Fr, 19.07. 0:00 0.0 l/m2 in 1 Std. -
Do, 18.07. 23:30 0.0 l/m2 in 30 Min -
Do, 18.07. 23:00 0.0 l/m2 in 1 Std. -
Ortszeit Stärke Spitze Richtung
km/h Bft. km/h Grad Sektor
Fr, 19.07. 2:00 17 3 28 100° O
Do, 18.07. 20:00 11 2 18 90° O
Do, 18.07. 14:00 11 2 25 80° O
Do, 18.07. 8:00 13 3 22 80° O
Do, 18.07. 2:00 9 2 17 350° N
Mi, 17.07. 20:00 11 2 25 300° NW
Mi, 17.07. 14:00 13 3 20 290° W
Mi, 17.07. 8:00 11 2 22 230° SW
Ortszeit Stärke Spitze Richtung
km/h Bft. km/h Grad Sektor
Fr, 19.07. 2:00 17 3 20 100° O
Fr, 19.07. 1:50 17 3 - 100° O
Fr, 19.07. 1:40 17 3 - 100° O
Fr, 19.07. 1:30 17 3 19 100° O
Fr, 19.07. 1:20 17 3 - 100° O
Fr, 19.07. 1:10 18 3 - 100° O
Fr, 19.07. 1:00 17 3 20 100° O
Fr, 19.07. 0:30 17 3 20 100° O
Fr, 19.07. 0:00 14 3 22 100° O
Do, 18.07. 23:30 17 3 22 100° O
Do, 18.07. 23:00 17 3 28 100° O
Ortszeit Untergrenze Bedeckung Gattung
total tief tief mittel hoch
Fr, 19.07. 2:00 5400 m 3/8 3/8 - - -
Do, 18.07. 20:00 7800 m 8/8 0/8 - - -
Do, 18.07. 14:00 630 m 6/8 5/8 - - -
Do, 18.07. 8:00 1140 m 8/8 8/8 - - -
Do, 18.07. 2:00 1410 m 6/8 6/8 - - -
Mi, 17.07. 20:00 900 m 8/8 8/8 - - -
Mi, 17.07. 14:00 270 m 7/8 7/8 - - -
Mi, 17.07. 8:00 2100 m 8/8 6/8 - - -
Ortszeit Bedeckungsgrad in Achtel und Wolkenuntergrenze
Fr, 19.07. 2:00 3(5400m)
Fr, 19.07. 1:50 3(5400m)
Fr, 19.07. 1:40 keine Wolken
Fr, 19.07. 1:30 2(660m) 3(990m)
Fr, 19.07. 1:20 2(660m) 3(990m) 3(1200m)
Fr, 19.07. 1:10 6
Fr, 19.07. 1:00 3(1140m) 4(1320m)
Fr, 19.07. 0:30 3(630m) 5(780m) 5(1380m)
Fr, 19.07. 0:00 2(870m) 3(1170m)
Do, 18.07. 23:30 1(690m) 3(840m)
Do, 18.07. 23:00 3(870m) 3(7500m)
Ortszeit Stationsdruck (hPa) Tendenz (hPa in 3 Std.)
Fr, 19.07. 2:00 863 - 0,2
Do, 18.07. 20:00 863 - 0,4
Do, 18.07. 14:00 864 - 0,1
Do, 18.07. 8:00 863 + 0,1
Do, 18.07. 2:00 864 - 0,1
Mi, 17.07. 20:00 863 + 0,1
Mi, 17.07. 14:00 862 + 0,6
Mi, 17.07. 8:00 861 + 0,5
Ortszeit Stationsdruck (hPa) Tendenz (hPa in 3 Std.)
Fr, 19.07. 2:00 863 - 0,2
Fr, 19.07. 1:50 863 keine Meldung
Fr, 19.07. 1:40 863 keine Meldung
Fr, 19.07. 1:30 863 - 0,4
Fr, 19.07. 1:20 863 keine Meldung
Fr, 19.07. 1:10 863 keine Meldung
Fr, 19.07. 1:00 863 - 0,3
Fr, 19.07. 0:30 863 - 0,1
Fr, 19.07. 0:00 863 - 0,1
Do, 18.07. 23:30 863 + 0,2
Do, 18.07. 23:00 863 + 0,4
Ortszeit Schneehöhe (cm)
Fr, 19.07. 2:00 -
Do, 18.07. 20:00 -
Do, 18.07. 14:00 -
Do, 18.07. 8:00 -
Do, 18.07. 2:00 -
Mi, 17.07. 20:00 -
Mi, 17.07. 14:00 -
Mi, 17.07. 8:00 -
Ortszeit Schneehöhe (cm)
Fr, 19.07. 2:00 -
Fr, 19.07. 1:50 0
Fr, 19.07. 1:40 -
Fr, 19.07. 1:30 -
Fr, 19.07. 1:20 0
Fr, 19.07. 1:10 -
Fr, 19.07. 1:00 -
Fr, 19.07. 0:30 -
Fr, 19.07. 0:00 -
Do, 18.07. 23:30 -
Do, 18.07. 23:00 -
Link zu dieser Seite / Seite empfehlen

Das Wetter in ...